Time;durP1;ratioP1;P1;durP2;ratioP2;P2;SDS_P1;SDS_P2;PMS_P1;PMS_P2;Temp;Humidity;BMP_temperature;BMP_pressure;BME280_temperature;BME280_humidity;BME280_pressure;Samples;Min_cycle;Max_cycle;Signal;HPM_P1;HPM_P2
2022/10/30 00:01:17;;;;;;;0.08;0.08;;;15.70;99.90;15.00;97753.00;;;;5074752;28;20209;-75
2022/10/30 00:03:46;;;;;;;0.00;0.00;;;15.70;99.90;14.90;97752.00;;;;5072257;28;20284;-75
2022/10/30 00:06:14;;;;;;;0.00;0.00;;;15.70;99.90;14.90;97750.00;;;;5071477;28;20186;-75
2022/10/30 00:08:42;;;;;;;0.00;0.00;;;15.70;99.90;14.90;97749.00;;;;5072945;28;20200;-75
2022/10/30 00:11:12;;;;;;;0.00;0.00;;;15.60;99.90;14.90;97743.00;;;;5072993;28;20213;-75
2022/10/30 00:13:43;;;;;;;0.00;0.00;;;15.60;99.90;14.90;97744.00;;;;5071893;28;20639;-75
2022/10/30 00:16:12;;;;;;;0.00;0.00;;;15.60;99.90;14.90;97748.00;;;;5071291;28;20189;-75
2022/10/30 00:18:40;;;;;;;0.00;0.00;;;15.60;99.90;14.90;97726.00;;;;5072354;28;20660;-75
2022/10/30 00:21:12;;;;;;;0.00;0.00;;;15.60;99.90;14.90;97744.00;;;;5072317;28;20271;-75
2022/10/30 00:23:45;;;;;;;0.00;0.00;;;15.60;99.90;14.90;97738.00;;;;5066428;28;20201;-76
2022/10/30 00:26:13;;;;;;;0.00;0.00;;;15.60;99.90;14.90;97744.00;;;;5071987;28;20591;-75
2022/10/30 00:28:42;;;;;;;0.00;0.00;;;15.60;99.90;14.90;97745.00;;;;5065024;28;20239;-75
2022/10/30 00:31:11;;;;;;;0.00;0.00;;;15.60;99.90;14.90;97740.00;;;;5072663;28;20216;-75
2022/10/30 00:33:39;;;;;;;0.00;0.00;;;15.60;99.90;14.90;97744.00;;;;5072668;28;20227;-75
2022/10/30 00:36:08;;;;;;;0.00;0.00;;;15.60;99.90;14.90;97731.00;;;;5072238;28;20656;-75
2022/10/30 00:38:36;;;;;;;0.00;0.00;;;15.60;99.90;14.90;97740.00;;;;5066215;28;20602;-75
2022/10/30 00:41:04;;;;;;;0.00;0.00;;;15.70;99.90;14.90;97741.00;;;;5066689;28;20201;-75
2022/10/30 00:43:37;;;;;;;0.00;0.00;;;15.60;99.90;14.90;97741.00;;;;5061509;28;20564;-76
2022/10/30 00:46:16;;;;;;;0.00;0.00;;;15.70;99.90;14.90;97732.00;;;;5068570;28;20197;-77
2022/10/30 00:48:49;;;;;;;0.00;0.00;;;15.70;99.90;14.90;97726.00;;;;5074317;28;20194;-76
2022/10/30 00:51:19;;;;;;;0.00;0.00;;;15.60;99.90;14.90;97718.00;;;;5070970;28;20225;-77
2022/10/30 00:53:49;;;;;;;0.00;0.00;;;15.60;99.90;14.90;97713.00;;;;5075680;28;20205;-77
2022/10/30 00:56:22;;;;;;;0.00;0.00;;;15.60;99.90;14.80;97671.00;;;;5060331;28;20194;-76
2022/10/30 00:58:55;;;;;;;0.00;0.00;;;15.60;99.90;14.80;97638.00;;;;5071318;28;20671;-77
2022/10/30 01:01:29;;;;;;;0.00;0.00;;;15.60;99.90;14.80;97661.00;;;;5072557;28;20206;-77
2022/10/30 01:04:01;;;;;;;0.00;0.00;;;15.60;99.90;14.90;97657.00;;;;5059739;28;20197;-78
2022/10/30 01:06:33;;;;;;;0.00;0.00;;;15.70;99.90;14.90;97655.00;;;;5064225;28;20202;-77
2022/10/30 01:09:03;;;;;;;0.00;0.00;;;15.70;99.90;14.90;97661.00;;;;5062163;28;20200;-77
2022/10/30 01:11:32;;;;;;;0.00;0.00;;;15.70;99.90;14.90;97660.00;;;;5070567;28;20241;-77
2022/10/30 01:14:04;;;;;;;0.00;0.00;;;15.70;99.90;14.90;97698.00;;;;5066409;28;20626;-77
2022/10/30 01:16:57;;;;;;;0.00;0.00;;;15.70;99.90;14.90;97658.00;;;;5065479;28;20208;-77
2022/10/30 01:19:41;;;;;;;0.00;0.00;;;15.70;99.90;14.90;97672.00;;;;5061664;28;20190;-76
2022/10/30 01:22:36;;;;;;;0.00;0.00;;;15.70;99.90;14.80;97677.00;;;;5069970;28;20263;-76
2022/10/30 01:25:21;;;;;;;0.10;0.10;;;15.60;99.90;14.80;97653.00;;;;5067138;28;20221;-76
2022/10/30 01:28:17;;;;;;;0.00;0.00;;;15.60;99.90;14.80;97705.00;;;;5066363;28;20292;-76
2022/10/30 01:31:02;;;;;;;0.00;0.00;;;15.50;99.90;14.70;97691.00;;;;5072710;28;20671;-77
2022/10/30 01:33:52;;;;;;;0.00;0.00;;;15.50;99.90;14.70;97687.00;;;;5057421;28;20194;-77
2022/10/30 01:36:31;;;;;;;0.10;0.10;;;15.40;99.90;14.70;97684.00;;;;5057228;28;20297;-77
2022/10/30 01:39:06;;;;;;;0.00;0.00;;;15.40;99.90;14.60;97622.00;;;;5049692;28;20657;-78
2022/10/30 01:41:35;;;;;;;0.00;0.00;;;15.40;99.90;14.60;97639.00;;;;5049230;28;20240;-77
2022/10/30 01:44:11;;;;;;;0.00;0.00;;;15.40;99.90;14.70;97634.00;;;;5059718;28;20661;-77
2022/10/30 01:46:52;;;;;;;0.00;0.00;;;15.40;99.90;14.70;97672.00;;;;5057409;28;20683;-77
2022/10/30 01:49:47;;;;;;;0.00;0.00;;;15.40;99.90;14.60;97692.00;;;;5068514;28;20200;-77
2022/10/30 01:52:26;;;;;;;0.00;0.00;;;15.40;99.90;14.60;97684.00;;;;5070897;28;20219;-76
2022/10/30 01:55:08;;;;;;;0.00;0.00;;;15.30;99.90;14.60;97686.00;;;;5066844;28;20209;-77
2022/10/30 01:57:48;;;;;;;0.00;0.00;;;15.40;99.90;14.60;97678.00;;;;5067643;28;20213;-77
2022/10/30 02:00:21;;;;;;;0.00;0.00;;;15.30;99.90;14.60;97691.00;;;;5058147;28;20229;-77
2022/10/30 02:02:51;;;;;;;0.00;0.00;;;15.30;99.90;14.60;97692.00;;;;5054848;28;20751;-77
2022/10/30 02:05:32;;;;;;;0.00;0.00;;;15.30;99.90;14.50;97688.00;;;;5054554;28;20220;-77
2022/10/30 02:08:01;;;;;;;0.00;0.00;;;15.30;99.90;14.50;97672.00;;;;5086553;28;20541;-76
2022/10/30 02:10:34;;;;;;;0.00;0.00;;;15.30;99.90;14.50;97662.00;;;;5070577;28;20285;-77
2022/10/30 02:13:03;;;;;;;0.10;0.10;;;15.30;99.90;14.50;97652.00;;;;5071982;28;20213;-76
2022/10/30 02:15:32;;;;;;;0.00;0.00;;;15.30;99.90;14.50;97648.00;;;;5059445;28;20202;-77
2022/10/30 02:18:00;;;;;;;0.00;0.00;;;15.20;99.90;14.50;97641.00;;;;5068450;28;20193;-77
2022/10/30 02:20:31;;;;;;;0.00;0.00;;;15.30;99.90;14.50;97674.00;;;;5070566;28;20202;-77
2022/10/30 02:22:59;;;;;;;0.10;0.10;;;15.20;99.90;14.50;97662.00;;;;5057084;28;20787;-77
2022/10/30 02:25:33;;;;;;;0.00;0.00;;;15.20;99.90;14.40;97657.00;;;;5054487;28;20233;-77
2022/10/30 02:28:01;;;;;;;0.03;0.03;;;15.20;99.90;14.40;97656.00;;;;5047777;28;20228;-76
2022/10/30 02:30:31;;;;;;;0.03;0.03;;;15.10;99.90;14.40;97650.00;;;;5076007;28;20208;-77
2022/10/30 02:33:06;;;;;;;0.00;0.00;;;15.20;99.90;14.40;97658.00;;;;5053825;28;20649;-76
2022/10/30 02:35:36;;;;;;;0.00;0.00;;;15.10;99.90;14.40;97646.00;;;;5065351;28;20209;-76
2022/10/30 02:38:04;;;;;;;0.00;0.00;;;15.20;99.90;14.40;97651.00;;;;5057323;28;20288;-77
2022/10/30 02:40:35;;;;;;;0.10;0.10;;;15.20;99.90;14.40;97629.00;;;;5056913;28;20289;-76
2022/10/30 02:43:03;;;;;;;0.00;0.00;;;15.20;99.90;14.40;97617.00;;;;5074415;28;20218;-77
2022/10/30 02:45:31;;;;;;;0.00;0.00;;;15.20;99.90;14.50;97597.00;;;;5066468;28;20305;-78
2022/10/30 02:48:00;;;;;;;0.00;0.00;;;15.20;99.90;14.50;97554.00;;;;5073404;28;20193;-77
2022/10/30 02:50:29;;;;;;;0.00;0.00;;;15.30;99.90;14.70;97637.00;;;;5056563;28;20193;-78
2022/10/30 02:53:00;;;;;;;0.00;0.00;;;15.50;99.90;14.80;97644.00;;;;5056255;28;20218;-77
2022/10/30 02:55:28;;;;;;;0.00;0.00;;;15.50;99.90;14.80;97641.00;;;;5056446;28;20194;-78
2022/10/30 02:57:56;;;;;;;0.00;0.00;;;15.60;99.90;15.00;97633.00;;;;5085394;28;20189;-77
2022/10/30 03:00:25;;;;;;;0.00;0.00;;;15.70;99.90;15.00;97643.00;;;;5071168;28;20198;-77
2022/10/30 03:02:55;;;;;;;0.00;0.00;;;15.80;99.90;15.00;97614.00;;;;5074332;28;20578;-77
2022/10/30 03:05:25;;;;;;;0.00;0.00;;;15.70;99.90;15.00;97640.00;;;;5073068;28;20213;-78
2022/10/30 03:07:55;;;;;;;0.00;0.00;;;15.70;99.90;15.00;97625.00;;;;5052888;28;20202;-77
2022/10/30 03:10:25;;;;;;;0.00;0.00;;;15.70;99.90;14.90;97628.00;;;;5058370;28;20220;-78
2022/10/30 03:12:53;;;;;;;0.00;0.00;;;15.60;99.90;14.80;97632.00;;;;5068999;28;20279;-77
2022/10/30 03:15:21;;;;;;;0.00;0.00;;;15.50;99.90;14.70;97619.00;;;;5084817;28;20194;-77
2022/10/30 03:17:51;;;;;;;0.00;0.00;;;15.40;99.90;14.60;97620.00;;;;5076497;28;20212;-77
2022/10/30 03:20:19;;;;;;;0.00;0.00;;;15.40;99.90;14.60;97549.00;;;;5084312;28;20201;-77
2022/10/30 03:22:47;;;;;;;0.00;0.00;;;15.30;99.90;14.60;97633.00;;;;5087220;28;20679;-78
2022/10/30 03:25:22;;;;;;;0.00;0.00;;;15.30;99.90;14.60;97619.00;;;;5072826;28;20245;-77
2022/10/30 03:27:55;;;;;;;0.05;0.05;;;15.40;99.90;14.60;97579.00;;;;5062147;28;20744;-77
2022/10/30 03:30:24;;;;;;;0.00;0.00;;;15.30;99.90;14.60;97585.00;;;;5070652;28;20640;-78
2022/10/30 03:32:52;;;;;;;0.00;0.00;;;15.30;99.90;14.60;97623.00;;;;5089702;28;20224;-77
2022/10/30 03:35:21;;;;;;;0.00;0.00;;;15.40;99.90;14.60;97618.00;;;;5073184;28;20687;-78
2022/10/30 03:37:49;;;;;;;0.00;0.00;;;15.40;99.90;14.60;97621.00;;;;5063054;28;20236;-77
2022/10/30 03:40:18;;;;;;;0.00;0.00;;;15.30;99.90;14.60;97627.00;;;;5085676;28;20200;-78
2022/10/30 03:42:46;;;;;;;0.00;0.00;;;15.30;99.90;14.60;97626.00;;;;5082608;28;20793;-78
2022/10/30 03:45:16;;;;;;;0.00;0.00;;;15.30;99.90;14.60;97620.00;;;;5082976;28;20221;-78
2022/10/30 03:47:44;;;;;;;0.00;0.00;;;15.30;99.90;14.60;97579.00;;;;5071894;28;20201;-77
2022/10/30 03:50:13;;;;;;;0.00;0.00;;;15.30;99.90;14.50;97627.00;;;;5072025;28;20201;-77
2022/10/30 03:52:41;;;;;;;0.00;0.00;;;15.30;99.90;14.50;97615.00;;;;5070152;28;20206;-77
2022/10/30 03:55:09;;;;;;;0.00;0.00;;;15.20;99.90;14.50;97618.00;;;;5055467;28;20204;-76
2022/10/30 03:57:40;;;;;;;0.00;0.00;;;15.20;99.90;14.50;97613.00;;;;5084889;28;20668;-76
2022/10/30 04:00:16;;;;;;;0.00;0.00;;;15.20;99.90;14.50;97616.00;;;;5068383;28;20221;-77
2022/10/30 04:02:58;;;;;;;0.10;0.10;;;15.30;99.90;14.60;97615.00;;;;5064000;28;20325;-77
2022/10/30 04:05:29;;;;;;;0.00;0.00;;;15.30;99.90;14.60;97585.00;;;;5036412;28;20229;-77
2022/10/30 04:08:01;;;;;;;0.03;0.03;;;15.30;99.90;14.60;97607.00;;;;5071203;28;20198;-77
2022/10/30 04:10:33;;;;;;;0.10;0.10;;;15.30;99.90;14.60;97610.00;;;;5056238;28;20228;-77
2022/10/30 04:13:06;;;;;;;0.00;0.00;;;15.30;99.90;14.60;97610.00;;;;5054882;28;20214;-76
2022/10/30 04:15:39;;;;;;;0.00;0.00;;;15.30;99.90;14.60;97573.00;;;;5054956;28;20200;-77
2022/10/30 04:18:10;;;;;;;0.00;0.00;;;15.40;99.90;14.60;97617.00;;;;5071446;28;20277;-77
2022/10/30 04:20:38;;;;;;;0.00;0.00;;;15.40;99.90;14.70;97620.00;;;;5061874;28;20198;-78
2022/10/30 04:23:15;;;;;;;0.00;0.00;;;15.40;99.90;14.60;97609.00;;;;5054986;28;20248;-77
2022/10/30 04:25:44;;;;;;;0.00;0.00;;;15.40;99.90;14.50;97610.00;;;;5071467;28;20566;-77
2022/10/30 04:28:13;;;;;;;0.10;0.10;;;15.40;99.90;14.60;97566.00;;;;5072026;28;20592;-77
2022/10/30 04:30:45;;;;;;;0.00;0.00;;;15.40;99.90;14.70;97596.00;;;;5054724;28;20233;-77
2022/10/30 04:33:16;;;;;;;0.00;0.00;;;15.40;99.90;14.70;97591.00;;;;5054980;28;20567;-77
2022/10/30 04:35:44;;;;;;;0.00;0.00;;;15.40;99.90;14.70;97593.00;;;;5071001;28;20619;-77
2022/10/30 04:38:18;;;;;;;0.00;0.00;;;15.40;99.90;14.70;97547.00;;;;5065806;28;20238;-76
2022/10/30 04:40:47;;;;;;;0.00;0.00;;;15.40;99.90;14.70;97557.00;;;;5062058;28;20198;-76
2022/10/30 04:43:17;;;;;;;0.00;0.00;;;15.40;99.90;14.70;97601.00;;;;5054673;28;20202;-77
2022/10/30 04:45:51;;;;;;;0.10;0.10;;;15.40;99.90;14.70;97597.00;;;;5055217;28;20196;-77
2022/10/30 04:48:19;;;;;;;0.00;0.00;;;15.40;99.90;14.70;97587.00;;;;5071757;28;20198;-77
2022/10/30 04:50:48;;;;;;;0.00;0.00;;;15.40;99.90;14.70;97594.00;;;;5060647;28;20193;-77
2022/10/30 04:53:24;;;;;;;0.00;0.00;;;15.40;99.90;14.70;97549.00;;;;5063234;28;20243;-77
2022/10/30 04:55:59;;;;;;;0.00;0.00;;;15.40;99.90;14.70;97549.00;;;;5069279;28;20197;-76
2022/10/30 04:58:28;;;;;;;0.00;0.00;;;15.40;99.90;14.70;97588.00;;;;5061290;28;20206;-76
2022/10/30 05:01:06;;;;;;;0.00;0.00;;;15.40;99.90;14.70;97593.00;;;;5070646;28;20285;-76
2022/10/30 05:03:36;;;;;;;0.00;0.00;;;15.40;99.90;14.60;97586.00;;;;5070655;28;20201;-76
2022/10/30 05:06:21;;;;;;;0.00;0.00;;;15.40;99.90;14.60;97540.00;;;;5060301;28;20202;-76
2022/10/30 05:08:50;;;;;;;0.00;0.00;;;15.40;99.90;14.60;97581.00;;;;5072785;28;20293;-76
2022/10/30 05:11:31;;;;;;;0.00;0.00;;;15.40;99.90;14.60;97586.00;;;;5070705;28;20300;-76
2022/10/30 05:13:59;;;;;;;0.00;0.00;;;15.40;99.90;14.60;97288.00;;;;5063378;28;20232;-76
2022/10/30 05:16:29;;;;;;;0.00;0.00;;;15.40;99.90;14.70;97320.00;;;;5084769;28;20206;-77
2022/10/30 05:18:59;;;;;;;0.00;0.00;;;15.40;99.90;14.70;97303.00;;;;5068097;28;20213;-76
2022/10/30 05:21:29;;;;;;;0.00;0.00;;;15.40;99.90;14.70;97573.00;;;;5064249;28;20248;-76
2022/10/30 05:23:58;;;;;;;0.00;0.00;;;15.40;99.90;14.70;97552.00;;;;5061528;28;20281;-76
2022/10/30 05:26:29;;;;;;;0.00;0.00;;;15.40;99.90;14.70;97521.00;;;;5078763;28;20210;-76
2022/10/30 05:28:57;;;;;;;0.00;0.00;;;15.40;99.90;14.70;97547.00;;;;5072207;28;20315;-76
2022/10/30 05:31:26;;;;;;;0.00;0.00;;;15.40;99.90;14.70;97534.00;;;;5071355;28;20210;-76
2022/10/30 05:34:14;;;;;;;0.00;0.00;;;15.50;99.90;14.80;97550.00;;;;5076706;28;20192;-76
2022/10/30 05:36:43;;;;;;;0.00;0.00;;;15.50;99.90;14.80;97546.00;;;;5075248;28;20194;-77
2022/10/30 05:39:14;;;;;;;0.10;0.10;;;15.50;99.90;14.80;97587.00;;;;5059830;28;20198;-76
2022/10/30 05:41:46;;;;;;;0.00;0.00;;;15.60;99.90;14.80;97546.00;;;;5036954;28;20222;-77
2022/10/30 05:44:14;;;;;;;0.00;0.00;;;15.60;99.90;14.90;97547.00;;;;5056070;28;20201;-76
2022/10/30 05:46:56;;;;;;;0.00;0.00;;;15.60;99.90;14.40;97520.00;;;;5062825;28;20218;-77
2022/10/30 05:50:07;;;;;;;0.00;0.00;;;15.60;99.90;14.90;97559.00;;;;5077686;28;20201;-77
2022/10/30 05:52:36;;;;;;;0.00;0.00;;;15.60;99.90;14.80;97561.00;;;;5061722;28;20292;-77
2022/10/30 05:55:05;;;;;;;0.00;0.00;;;15.60;99.90;14.80;97585.00;;;;5059098;28;20714;-77
2022/10/30 05:57:44;;;;;;;0.00;0.00;;;15.60;99.90;14.80;97598.00;;;;5071610;28;20219;-77
2022/10/30 06:00:15;;;;;;;0.00;0.00;;;15.50;99.90;14.80;97552.00;;;;5072118;28;20266;-76
2022/10/30 06:02:44;;;;;;;0.00;0.00;;;15.60;99.90;14.90;97591.00;;;;5077075;28;20213;-78
2022/10/30 06:05:16;;;;;;;0.00;0.00;;;15.60;99.90;14.90;97595.00;;;;5057366;28;20239;-77
2022/10/30 06:07:44;;;;;;;0.00;0.00;;;15.60;99.90;14.90;97556.00;;;;5068177;28;20222;-77
2022/10/30 06:10:15;;;;;;;0.00;0.00;;;15.60;99.90;14.90;97561.00;;;;5071618;28;20403;-76
2022/10/30 06:13:05;;;;;;;0.00;0.00;;;15.60;99.90;14.90;97554.00;;;;5076009;28;20347;-77
2022/10/30 06:15:41;;;;;;;0.00;0.00;;;15.60;99.90;14.90;97568.00;;;;5071475;28;20217;-77
2022/10/30 06:18:09;;;;;;;0.00;0.00;;;15.70;99.90;14.90;97518.00;;;;5077415;28;20650;-78
2022/10/30 06:20:55;;;;;;;0.00;0.00;;;15.70;99.90;15.00;97561.00;;;;5043748;28;21038;-76
2022/10/30 06:23:44;;;;;;;0.00;0.00;;;15.70;99.90;15.00;97567.00;;;;5044495;28;20213;-77
2022/10/30 06:26:31;;;;;;;0.00;0.00;;;15.70;99.90;15.00;97574.00;;;;5070803;28;20201;-78
2022/10/30 06:29:05;;;;;;;0.00;0.00;;;15.70;99.90;15.00;97583.00;;;;5064767;28;20188;-75
2022/10/30 06:31:33;;;;;;;0.00;0.00;;;15.80;99.90;15.00;97583.00;;;;5081438;28;20210;-76
2022/10/30 06:34:02;;;;;;;0.00;0.00;;;15.80;99.90;15.10;97586.00;;;;5073846;28;20568;-77
2022/10/30 06:36:33;;;;;;;0.00;0.00;;;15.80;99.90;15.10;97588.00;;;;5068823;28;20201;-77
2022/10/30 06:39:01;;;;;;;0.00;0.00;;;15.80;99.90;15.10;97590.00;;;;5066197;28;20197;-76
2022/10/30 06:41:37;;;;;;;0.00;0.00;;;15.80;99.90;15.10;97582.00;;;;5057334;28;20294;-76
2022/10/30 06:44:26;;;;;;;0.00;0.00;;;15.80;99.90;15.10;97594.00;;;;5075394;28;20182;-76
2022/10/30 06:46:54;;;;;;;0.08;0.08;;;15.80;99.90;15.10;97637.00;;;;5062086;28;20195;-77
2022/10/30 06:49:23;;;;;;;0.05;0.05;;;15.90;99.90;15.20;97583.00;;;;5067792;28;20190;-77
2022/10/30 06:51:53;;;;;;;0.00;0.00;;;15.90;99.90;15.20;97586.00;;;;5073458;28;20229;-77
2022/10/30 06:54:22;;;;;;;0.00;0.00;;;15.90;99.90;15.20;97603.00;;;;5073017;28;20202;-77
2022/10/30 06:57:10;;;;;;;0.00;0.00;;;15.90;99.90;15.20;97599.00;;;;5074200;28;20229;-77
2022/10/30 07:00:06;;;;;;;0.00;0.00;;;15.90;99.90;15.30;97604.00;;;;5052175;28;20193;-77
2022/10/30 07:03:09;;;;;;;0.00;0.00;;;16.00;99.90;15.20;97594.00;;;;5020891;28;20960;-77
2022/10/30 07:05:40;;;;;;;0.00;0.00;;;16.00;99.90;15.30;97591.00;;;;5055351;28;20202;-76
2022/10/30 07:08:09;;;;;;;0.00;0.00;;;16.00;99.90;15.20;97597.00;;;;5071840;28;20217;-77
2022/10/30 07:10:37;;;;;;;0.00;0.00;;;16.00;99.90;15.20;97589.00;;;;5062913;28;20197;-75
2022/10/30 07:13:44;;;;;;;0.00;0.00;;;16.00;99.90;15.30;97600.00;;;;5037226;28;20202;-75
2022/10/30 07:16:26;;;;;;;0.00;0.00;;;16.00;99.90;15.30;97587.00;;;;5044851;28;20677;-75
2022/10/30 07:18:55;;;;;;;0.00;0.00;;;16.00;99.90;15.30;97599.00;;;;5057153;28;20288;-75
2022/10/30 07:21:29;;;;;;;0.00;0.00;;;16.00;99.90;15.30;97595.00;;;;5068315;28;20312;-75
2022/10/30 07:23:59;;;;;;;0.00;0.00;;;16.10;99.90;15.40;97591.00;;;;5064113;28;20198;-76
2022/10/30 07:26:37;;;;;;;0.00;0.00;;;16.10;99.90;15.40;97596.00;;;;5062558;28;20284;-75
2022/10/30 07:29:25;;;;;;;0.00;0.00;;;16.10;99.90;15.40;97580.00;;;;5071431;28;20221;-77
2022/10/30 07:32:13;;;;;;;0.00;0.00;;;16.20;99.90;15.40;97636.00;;;;5070874;28;20219;-76
2022/10/30 07:34:49;;;;;;;0.00;0.00;;;16.20;99.90;15.40;97593.00;;;;5056581;28;20301;-76
2022/10/30 07:37:42;;;;;;;0.00;0.00;;;16.10;99.90;15.40;97606.00;;;;5069426;28;20209;-76
2022/10/30 07:40:15;;;;;;;0.00;0.00;;;16.10;99.90;15.50;97604.00;;;;5068921;28;20611;-76
2022/10/30 07:43:04;;;;;;;0.00;0.00;;;16.20;99.90;15.60;97619.00;;;;5068430;28;20236;-75
2022/10/30 07:45:47;;;;;;;0.00;0.00;;;16.30;99.90;15.70;97578.00;;;;5073333;28;20558;-75
2022/10/30 07:48:34;;;;;;;0.00;0.00;;;16.50;99.90;15.70;97654.00;;;;5071922;28;20343;-76
2022/10/30 07:51:08;;;;;;;0.00;0.00;;;16.40;99.90;15.70;97654.00;;;;5069038;28;20229;-76
2022/10/30 07:53:36;;;;;;;0.00;0.00;;;16.40;99.90;15.70;97658.00;;;;5055775;28;20189;-75
2022/10/30 07:56:07;;;;;;;0.00;0.00;;;16.40;99.90;15.70;97625.00;;;;5063481;28;20198;-75
2022/10/30 07:58:54;;;;;;;0.00;0.00;;;16.50;99.90;15.80;97615.00;;;;5073413;28;20212;-75
2022/10/30 08:01:38;;;;;;;0.10;0.10;;;16.40;99.90;15.80;97616.00;;;;5070545;28;20225;-77
2022/10/30 08:04:27;;;;;;;0.00;0.00;;;16.50;99.90;15.90;97623.00;;;;5050122;28;20563;-75
2022/10/30 08:07:00;;;;;;;0.00;0.00;;;16.50;99.90;16.00;97621.00;;;;5073118;28;20213;-75
2022/10/30 08:09:29;;;;;;;0.00;0.00;;;16.60;99.90;16.00;97619.00;;;;5074865;28;20241;-75
2022/10/30 08:11:59;;;;;;;0.00;0.00;;;16.70;99.90;16.10;97664.00;;;;5048380;28;20249;-75
2022/10/30 08:14:27;;;;;;;0.00;0.00;;;16.70;99.90;16.10;97624.00;;;;5036060;28;20198;-75
2022/10/30 08:16:56;;;;;;;0.00;0.00;;;16.80;99.90;16.20;97627.00;;;;5071828;28;20203;-75
2022/10/30 08:19:24;;;;;;;0.00;0.00;;;16.80;99.90;16.30;97628.00;;;;5062417;28;20194;-75
2022/10/30 08:21:54;;;;;;;0.00;0.00;;;16.90;99.90;16.30;97621.00;;;;5070355;28;20287;-75
2022/10/30 08:24:27;;;;;;;0.00;0.00;;;17.00;99.90;16.40;97624.00;;;;5054265;28;20220;-75
2022/10/30 08:27:00;;;;;;;0.00;0.00;;;17.00;99.90;16.40;97632.00;;;;5076781;28;20300;-75
2022/10/30 08:29:28;;;;;;;0.00;0.00;;;17.10;99.90;16.50;97629.00;;;;5061474;28;20574;-76
2022/10/30 08:31:57;;;;;;;0.00;0.00;;;17.10;99.90;16.60;97615.00;;;;5054493;28;20271;-76
2022/10/30 08:34:46;;;;;;;0.00;0.00;;;17.20;99.90;16.70;97611.00;;;;5071449;28;20198;-75
2022/10/30 08:37:17;;;;;;;0.00;0.00;;;17.30;99.90;16.70;97607.00;;;;5064374;28;20198;-76
2022/10/30 08:39:46;;;;;;;0.00;0.00;;;17.40;99.90;16.70;97598.00;;;;5062005;28;20216;-75
2022/10/30 08:42:39;;;;;;;0.00;0.00;;;17.40;99.90;16.80;97596.00;;;;5058437;28;20249;-75
2022/10/30 08:45:11;;;;;;;0.00;0.00;;;17.40;99.90;16.80;97600.00;;;;5053650;28;20263;-75
2022/10/30 08:48:05;;;;;;;0.00;0.00;;;17.50;99.90;16.90;97599.00;;;;5064440;28;20277;-75
2022/10/30 08:50:37;;;;;;;0.00;0.00;;;17.50;99.90;16.90;97641.00;;;;5053207;28;20209;-75
2022/10/30 08:53:08;;;;;;;0.03;0.03;;;17.60;99.90;16.90;97646.00;;;;5072171;28;20556;-75
2022/10/30 08:55:36;;;;;;;0.00;0.00;;;17.60;99.90;16.90;97648.00;;;;5061944;28;20598;-76
2022/10/30 08:58:10;;;;;;;0.00;0.00;;;17.60;99.90;16.90;97335.00;;;;5066226;28;20205;-76
2022/10/30 09:00:39;;;;;;;0.00;0.00;;;17.60;99.90;16.90;97339.00;;;;5070638;28;20198;-74
2022/10/30 09:03:13;;;;;;;0.00;0.00;;;17.60;99.90;17.10;97333.00;;;;5070539;28;20675;-74
2022/10/30 09:06:14;;;;;;;0.00;0.00;;;17.70;99.90;17.10;97328.00;;;;5051130;28;20676;-73
2022/10/30 09:09:01;;;;;;;0.03;0.03;;;17.70;99.90;17.10;97330.00;;;;5070586;28;20727;-76
2022/10/30 09:11:33;;;;;;;0.00;0.00;;;17.80;99.90;17.10;97323.00;;;;5068755;28;20213;-76
2022/10/30 09:14:03;;;;;;;0.00;0.00;;;17.80;99.90;17.20;97323.00;;;;5065377;28;20201;-76
2022/10/30 09:16:31;;;;;;;0.00;0.00;;;17.90;99.90;17.30;97316.00;;;;5071876;28;20198;-76
2022/10/30 09:18:59;;;;;;;0.00;0.00;;;17.90;99.90;17.40;97330.00;;;;5071434;28;20246;-76
2022/10/30 09:21:27;;;;;;;0.00;0.00;;;18.00;99.90;17.40;97325.00;;;;5055416;28;20351;-76
2022/10/30 09:23:56;;;;;;;0.00;0.00;;;18.10;99.90;17.50;97274.00;;;;5067557;28;20208;-76
2022/10/30 09:26:36;;;;;;;0.00;0.00;;;18.10;99.90;17.50;97281.00;;;;5068562;28;20703;-76
2022/10/30 09:29:13;;;;;;;0.00;0.00;;;18.20;99.90;17.60;97281.00;;;;5051185;28;20221;-76
2022/10/30 09:32:00;;;;;;;0.00;0.00;;;18.30;99.90;17.70;97296.00;;;;5070154;28;20580;-76
2022/10/30 09:34:32;;;;;;;0.00;0.00;;;18.40;99.90;17.70;97286.00;;;;5053723;28;20221;-76
2022/10/30 09:37:05;;;;;;;0.00;0.00;;;18.40;99.90;17.90;97350.00;;;;5053737;28;20202;-76
2022/10/30 09:39:37;;;;;;;0.00;0.00;;;18.50;99.90;18.00;97371.00;;;;5052747;28;20206;-76
2022/10/30 09:42:35;;;;;;;0.00;0.00;;;18.60;99.90;18.10;97362.00;;;;5053375;28;20255;-76
2022/10/30 09:45:28;;;;;;;0.00;0.00;;;18.70;99.90;18.20;97369.00;;;;5053226;28;20568;-76
2022/10/30 09:48:19;;;;;;;0.00;0.00;;;18.80;99.90;18.30;97314.00;;;;5052888;28;20296;-76
2022/10/30 09:51:16;;;;;;;0.00;0.00;;;18.90;99.90;18.50;97368.00;;;;5053238;28;20598;-76
2022/10/30 09:53:59;;;;;;;0.00;0.00;;;19.10;99.90;18.60;97379.00;;;;5053476;28;20229;-76
2022/10/30 09:56:39;;;;;;;0.00;0.00;;;19.20;99.90;18.80;97356.00;;;;5053668;28;20625;-76
2022/10/30 09:59:29;;;;;;;0.00;0.00;;;19.40;99.90;19.00;97377.00;;;;5053474;28;20224;-76
2022/10/30 10:02:16;;;;;;;0.00;0.00;;;19.50;99.90;19.10;97371.00;;;;5053819;28;20653;-76
2022/10/30 10:04:49;;;;;;;0.00;0.00;;;19.70;99.90;19.20;97354.00;;;;5053318;28;20560;-76
2022/10/30 10:07:45;;;;;;;0.00;0.00;;;19.70;99.90;19.30;97391.00;;;;5053065;28;20335;-75
2022/10/30 10:10:45;;;;;;;0.00;0.00;;;19.80;99.90;19.40;97388.00;;;;5061127;28;20334;-75
2022/10/30 10:13:32;;;;;;;0.00;0.00;;;20.00;99.90;19.50;97365.00;;;;5061060;28;20224;-77
2022/10/30 10:16:14;;;;;;;0.00;0.00;;;20.10;99.90;19.60;97405.00;;;;5080713;28;20193;-77
2022/10/30 10:18:47;;;;;;;0.00;0.00;;;20.10;99.90;19.70;97404.00;;;;5078055;28;20243;-77
2022/10/30 10:21:25;;;;;;;0.00;0.00;;;20.30;99.90;19.80;97412.00;;;;5076325;28;20703;-77
2022/10/30 10:23:56;;;;;;;0.00;0.00;;;20.30;99.90;19.90;97411.00;;;;5071982;28;20623;-77
2022/10/30 10:27:09;;;;;;;0.00;0.00;;;20.40;99.90;20.00;97415.00;;;;5072330;28;20190;-77
2022/10/30 10:29:55;;;;;;;0.00;0.00;;;20.50;99.90;20.10;97403.00;;;;5071307;28;20616;-77
2022/10/30 10:32:51;;;;;;;0.00;0.00;;;20.60;99.90;20.20;97671.00;;;;5071995;28;20209;-75
2022/10/30 10:36:02;;;;;;;0.00;0.00;;;20.70;99.90;20.40;97411.00;;;;5071912;28;20273;-74
2022/10/30 10:38:53;;;;;;;0.00;0.00;;;20.80;99.90;20.40;97411.00;;;;5059031;28;20255;-75
2022/10/30 10:41:44;;;;;;;0.00;0.00;;;21.00;99.90;20.50;97417.00;;;;5070914;28;20271;-75
2022/10/30 10:44:37;;;;;;;0.00;0.00;;;21.00;99.90;20.60;97430.00;;;;5073386;28;20194;-75
2022/10/30 10:47:29;;;;;;;0.00;0.00;;;21.10;99.90;20.70;97407.00;;;;5071928;28;20194;-75
2022/10/30 10:50:18;;;;;;;0.00;0.00;;;21.20;99.90;20.70;97412.00;;;;5070993;28;20222;-75
2022/10/30 10:52:55;;;;;;;0.00;0.00;;;21.20;99.90;20.80;97420.00;;;;5071118;28;20210;-75
2022/10/30 10:55:28;;;;;;;0.00;0.00;;;21.30;99.90;20.90;97404.00;;;;5072912;28;20242;-75
2022/10/30 10:58:10;;;;;;;0.00;0.00;;;21.30;99.90;20.90;97416.00;;;;5073809;28;20208;-75
2022/10/30 11:00:40;;;;;;;0.00;0.00;;;21.40;99.90;20.80;97411.00;;;;5074497;28;20726;-75
2022/10/30 11:03:14;;;;;;;0.00;0.00;;;21.30;99.90;20.80;97411.00;;;;5074612;28;20218;-75
2022/10/30 11:05:51;;;;;;;0.00;0.00;;;21.30;99.90;20.90;97414.00;;;;5074615;28;20205;-75
2022/10/30 11:08:25;;;;;;;0.00;0.00;;;21.30;99.90;20.80;97407.00;;;;5073713;28;20205;-75
2022/10/30 11:10:58;;;;;;;0.00;0.00;;;21.30;99.90;20.90;97403.00;;;;5074424;28;20578;-76
2022/10/30 11:13:30;;;;;;;0.00;0.00;;;21.30;99.90;20.90;97398.00;;;;5074248;28;20198;-75
2022/10/30 11:16:13;;;;;;;0.00;0.00;;;21.40;99.90;20.90;97429.00;;;;5074087;28;20189;-76
2022/10/30 11:18:43;;;;;;;0.00;0.00;;;21.40;99.90;21.00;97417.00;;;;5073668;28;20291;-76
2022/10/30 11:21:18;;;;;;;0.00;0.00;;;21.40;99.90;21.00;97421.00;;;;5074167;28;20214;-76
2022/10/30 11:23:49;;;;;;;0.00;0.00;;;21.40;99.90;21.10;97396.00;;;;5074465;28;20605;-76
2022/10/30 11:26:32;;;;;;;0.00;0.00;;;21.40;99.90;21.10;97458.00;;;;5074376;28;20684;-76
2022/10/30 11:29:06;;;;;;;0.00;0.00;;;21.50;99.90;21.20;97424.00;;;;5074328;28;20196;-76
2022/10/30 11:31:39;;;;;;;0.00;0.00;;;21.50;99.90;21.40;97436.00;;;;5074669;28;20499;-76